createdAt,value
2019-05-21T00:01:11.361Z,90.7
2019-05-21T00:06:11.057Z,88.1
2019-05-21T00:11:10.870Z,90.1
2019-05-21T00:16:10.555Z,89.9
2019-05-21T00:21:10.269Z,90.7
2019-05-21T00:26:09.946Z,88.9
2019-05-21T00:31:09.730Z,88
2019-05-21T00:36:09.049Z,88.9
2019-05-21T00:41:08.693Z,88.6
2019-05-21T00:46:08.443Z,88
2019-05-21T00:51:07.930Z,88.1
2019-05-21T00:56:07.695Z,85.9
2019-05-21T01:01:07.256Z,85.1
2019-05-21T01:06:06.710Z,88
2019-05-21T01:11:06.264Z,90.1
2019-05-21T01:16:05.786Z,91.9
2019-05-21T01:21:05.288Z,92.7
2019-05-21T01:26:05.047Z,91.6
2019-05-21T01:31:04.878Z,89.2
2019-05-21T01:36:04.669Z,89.3
2019-05-21T01:41:04.289Z,91.6
2019-05-21T01:46:03.979Z,92.5
2019-05-21T01:51:03.613Z,92.9
2019-05-21T01:56:03.375Z,91.7
2019-05-21T02:01:03.011Z,92.5
2019-05-21T02:06:02.616Z,92.1
2019-05-21T02:11:02.444Z,92
2019-05-21T02:16:02.099Z,92.1
2019-05-21T02:21:01.879Z,92.6
2019-05-21T02:26:01.808Z,93.9
2019-05-21T02:31:01.569Z,95.1
2019-05-21T02:36:01.291Z,94.8
2019-05-21T02:41:00.976Z,94.6
2019-05-21T02:46:00.591Z,95.4
2019-05-21T02:51:00.254Z,95.4
2019-05-21T02:55:59.798Z,95
2019-05-21T03:00:59.655Z,94.3
2019-05-21T03:06:14.990Z,94.9
2019-05-21T03:11:12.874Z,93.4
2019-05-21T03:16:12.518Z,93.1
2019-05-21T03:21:12.051Z,92
2019-05-21T03:26:12.061Z,91.6
2019-05-21T03:31:13.420Z,78.1
2019-05-21T03:36:34.228Z,70.1
2019-05-21T03:41:33.528Z,62.2
2019-05-21T03:46:32.607Z,66.9
2019-05-21T03:51:32.031Z,67.9
2019-05-21T03:56:33.307Z,65.6
2019-05-21T04:01:31.513Z,69.7
2019-05-21T04:06:29.427Z,68.8
2019-05-21T04:11:31.016Z,65.7
2019-05-21T04:16:32.038Z,61.2
2019-05-21T04:21:32.466Z,65.2
2019-05-21T04:26:32.848Z,64.6
2019-05-21T04:31:33.294Z,55.7
2019-05-21T04:36:32.075Z,55.4
2019-05-21T04:41:31.612Z,56.1
2019-05-21T04:46:31.553Z,59.1
2019-05-21T04:51:32.212Z,56.5
2019-05-21T04:56:32.498Z,51.2
2019-05-21T05:01:33.096Z,51.9
2019-05-21T05:06:32.629Z,57.6
2019-05-21T05:11:32.248Z,51.1
2019-05-21T05:16:31.903Z,53.6
2019-05-21T05:21:32.431Z,46.1
2019-05-21T05:26:33.139Z,46.2
2019-05-21T05:31:33.321Z,46.1
2019-05-21T05:36:33.155Z,47.2
2019-05-21T05:41:32.401Z,48.6
2019-05-21T05:46:31.426Z,49.7
2019-05-21T05:51:31.462Z,57.8
2019-05-21T05:56:31.798Z,52.4
2019-05-21T06:01:31.529Z,48.2
2019-05-21T06:06:31.096Z,52.7
2019-05-21T06:11:30.756Z,52.5
2019-05-21T06:16:30.763Z,53.9
2019-05-21T06:21:30.234Z,55.8
2019-05-21T06:26:29.310Z,56.6
2019-05-21T06:31:29.239Z,53.6
2019-05-21T06:36:28.944Z,53.8
2019-05-21T06:41:27.665Z,58.2
2019-05-21T06:46:28.494Z,48.9
2019-05-21T06:51:28.029Z,54.7
2019-05-21T06:56:28.036Z,54.1
2019-05-21T07:01:29.997Z,55.7
2019-05-21T07:06:29.801Z,52.6
2019-05-21T07:11:30.144Z,51.1
2019-05-21T07:16:29.569Z,51.6
2019-05-21T07:21:29.254Z,48.3
2019-05-21T07:26:28.602Z,53.2
2019-05-21T07:31:28.504Z,51.9
2019-05-21T07:36:27.920Z,49
2019-05-21T07:41:27.324Z,51.2
2019-05-21T07:46:27.741Z,44.4
2019-05-21T07:51:26.231Z,49.8
2019-05-21T07:56:25.998Z,50.3
2019-05-21T08:01:26.620Z,56.4
2019-05-21T08:06:26.745Z,44.4
2019-05-21T08:11:26.767Z,50
2019-05-21T08:16:26.756Z,48.2
2019-05-21T08:21:26.459Z,47.9
2019-05-21T08:26:26.645Z,49.2
2019-05-21T08:31:26.772Z,51.8
2019-05-21T08:36:26.254Z,45.7
2019-05-21T08:41:26.366Z,45.3
2019-05-21T08:46:26.413Z,46.6
2019-05-21T08:51:24.960Z,49
2019-05-21T08:56:24.586Z,44.9
2019-05-21T09:01:24.201Z,45.6
2019-05-21T09:06:24.094Z,45.6
2019-05-21T09:11:24.393Z,44.6
2019-05-21T09:16:23.700Z,51
2019-05-21T09:21:22.981Z,46.4
2019-05-21T09:26:24.237Z,40.6
2019-05-21T09:31:23.148Z,45.3
2019-05-21T09:36:25.540Z,48.5
2019-05-21T09:41:25.517Z,45.7
2019-05-21T09:46:25.478Z,44.9
2019-05-21T09:51:26.170Z,44.6
2019-05-21T09:56:26.017Z,42.2
2019-05-21T10:01:25.205Z,43.6
2019-05-21T10:06:25.350Z,44.3
2019-05-21T10:11:25.390Z,35.4
2019-05-21T10:16:25.900Z,41.2
2019-05-21T10:21:25.766Z,37.4
2019-05-21T10:26:26.013Z,37.6
2019-05-21T10:31:25.399Z,39.9
2019-05-21T10:36:25.576Z,40.4
2019-05-21T10:41:24.234Z,40.7
2019-05-21T10:46:22.924Z,41.9
2019-05-21T10:51:21.789Z,40.5
2019-05-21T10:56:22.514Z,42.6
2019-05-21T11:01:21.393Z,42.4
2019-05-21T11:06:20.647Z,38.8
2019-05-21T11:11:21.606Z,43.5
2019-05-21T11:16:20.853Z,41.8
2019-05-21T11:21:20.511Z,47.5
2019-05-21T11:26:20.061Z,44.6
2019-05-21T11:31:19.500Z,44.6
2019-05-21T11:36:19.113Z,45.6
2019-05-21T11:41:18.379Z,48
2019-05-21T11:46:17.640Z,54.3
2019-05-21T11:51:17.122Z,57.6
2019-05-21T11:56:16.778Z,62.7
2019-05-21T12:01:16.769Z,62.1
2019-05-21T12:06:16.369Z,56.2
2019-05-21T12:11:16.713Z,54.1
2019-05-21T12:16:16.297Z,57.4
2019-05-21T12:21:15.882Z,56.9
2019-05-21T12:26:16.216Z,56.7
2019-05-21T12:31:16.448Z,47.5
2019-05-21T12:36:16.838Z,52.4
2019-05-21T12:41:18.127Z,43.3
2019-05-21T12:46:17.067Z,43.6
2019-05-21T12:51:17.020Z,42.7
2019-05-21T12:56:17.124Z,43.5
2019-05-21T13:01:17.477Z,41.6
2019-05-21T13:06:17.253Z,40.4
2019-05-21T13:11:16.452Z,41
2019-05-21T13:16:16.659Z,42.5
2019-05-21T13:21:15.569Z,44.5
2019-05-21T13:26:15.300Z,50.4
2019-05-21T13:31:14.377Z,43.2
2019-05-21T13:36:14.124Z,43.7
2019-05-21T13:41:13.651Z,47.6
2019-05-21T13:46:13.504Z,45.7
2019-05-21T13:51:14.001Z,42.5
2019-05-21T13:56:14.298Z,41
2019-05-21T14:01:16.398Z,42.3
2019-05-21T14:06:15.933Z,41.1
2019-05-21T14:11:15.273Z,44.1
2019-05-21T14:16:14.981Z,42.9
2019-05-21T14:21:14.086Z,45.7
2019-05-21T14:26:13.654Z,41.6
2019-05-21T14:31:13.811Z,39.9
2019-05-21T14:36:14.201Z,40.2
2019-05-21T14:41:13.603Z,45.2
2019-05-21T14:46:13.011Z,43.4
2019-05-21T14:51:13.844Z,43.7
2019-05-21T14:56:13.273Z,47.3
2019-05-21T15:01:12.797Z,48.3
2019-05-21T15:06:12.419Z,49.6
2019-05-21T15:11:12.226Z,53
2019-05-21T15:16:10.751Z,56.9
2019-05-21T15:21:10.842Z,55.2
2019-05-21T15:26:09.986Z,59.4
2019-05-21T15:31:09.434Z,66.7
2019-05-21T15:36:09.385Z,66.4
2019-05-21T15:41:13.023Z,65.3
2019-05-21T15:46:11.845Z,66.6
2019-05-21T15:51:11.923Z,62.5
2019-05-21T15:56:11.755Z,61.4
2019-05-21T16:01:11.362Z,65.7
2019-05-21T16:06:11.220Z,59.8
2019-05-21T16:11:29.084Z,63.6
2019-05-21T16:16:26.514Z,65.5
2019-05-21T16:21:26.069Z,65.2
2019-05-21T16:26:25.632Z,67.3
2019-05-21T16:31:25.421Z,67.3
2019-05-21T16:36:24.806Z,69.8
2019-05-21T16:41:25.169Z,71.5
2019-05-21T16:46:24.296Z,72.9
2019-05-21T16:51:24.078Z,72.6
2019-05-21T16:56:23.686Z,76.3
2019-05-21T17:01:23.126Z,76.2
2019-05-21T17:06:22.551Z,77.6
2019-05-21T17:11:22.112Z,78.2
2019-05-21T17:16:21.423Z,77.4
2019-05-21T17:21:21.192Z,76.9
2019-05-21T17:26:20.821Z,77.3
2019-05-21T17:31:20.579Z,76.2
2019-05-21T17:36:20.153Z,78.3
2019-05-21T17:41:19.812Z,79.9
2019-05-21T17:46:19.452Z,80.7
2019-05-21T17:51:19.090Z,82.2
2019-05-21T17:56:18.673Z,82.3
2019-05-21T18:01:18.281Z,82.5
2019-05-21T18:06:17.921Z,81.8
2019-05-21T18:11:17.967Z,81.4
2019-05-21T18:16:17.603Z,81.6
2019-05-21T18:21:17.328Z,81.8
2019-05-21T18:26:16.874Z,82.2
2019-05-21T18:31:16.258Z,82.6
2019-05-21T18:36:16.425Z,83.2
2019-05-21T18:41:15.698Z,81.5
2019-05-21T18:46:15.598Z,83.6
2019-05-21T18:51:15.567Z,83.2
2019-05-21T18:56:14.905Z,84.4
2019-05-21T19:01:14.632Z,82.9
2019-05-21T19:06:14.271Z,83.3
2019-05-21T19:11:14.087Z,83.6
2019-05-21T19:16:13.856Z,85.8
2019-05-21T19:21:13.504Z,85.8
2019-05-21T19:26:13.331Z,85.9
2019-05-21T19:31:13.053Z,85.8
2019-05-21T19:36:12.701Z,87.1
2019-05-21T19:41:12.154Z,87.5
2019-05-21T19:46:11.822Z,87
2019-05-21T19:51:11.578Z,86.1
2019-05-21T19:56:11.443Z,87.1
2019-05-21T20:01:11.198Z,88
2019-05-21T20:06:11.093Z,87.6
2019-05-21T20:11:10.609Z,88.5
2019-05-21T20:16:10.395Z,87.2
2019-05-21T20:21:10.013Z,86.1
2019-05-21T20:26:09.507Z,87.2
2019-05-21T20:31:09.315Z,87.7
2019-05-21T20:36:09.184Z,86.1
2019-05-21T20:41:08.741Z,85.9
2019-05-21T20:46:08.550Z,84.7
2019-05-21T20:51:08.178Z,87.2
2019-05-21T20:56:07.738Z,87.9
2019-05-21T21:01:07.344Z,86.3
2019-05-21T21:06:06.999Z,87.7
2019-05-21T21:11:06.764Z,88.4
2019-05-21T21:16:06.476Z,88.6
2019-05-21T21:21:06.617Z,88
2019-05-21T21:26:06.497Z,88.2
2019-05-21T21:31:06.274Z,86.5
2019-05-21T21:36:05.771Z,86.7
2019-05-21T21:41:05.582Z,88.7
2019-05-21T21:46:05.061Z,87.3
2019-05-21T21:51:04.850Z,88.1
2019-05-21T21:56:04.455Z,88.5
2019-05-21T22:01:03.998Z,87
2019-05-21T22:06:03.773Z,88.2
2019-05-21T22:11:03.322Z,88.4
2019-05-21T22:16:02.967Z,88.6
2019-05-21T22:21:02.632Z,88.2
2019-05-21T22:26:02.342Z,88.6
2019-05-21T22:31:01.702Z,89.1
2019-05-21T22:36:01.309Z,89.8
2019-05-21T22:41:00.790Z,89.9
2019-05-21T22:46:00.392Z,88.6
2019-05-21T22:50:59.747Z,89.6
2019-05-21T22:55:59.707Z,89
2019-05-21T23:00:59.372Z,90.4
2019-05-21T23:05:59.005Z,89.9
2019-05-21T23:10:58.818Z,89.9
2019-05-21T23:15:58.477Z,90.9
2019-05-21T23:20:58.149Z,90.7
2019-05-21T23:25:57.749Z,89.9
2019-05-21T23:30:57.328Z,89.9
2019-05-21T23:35:56.949Z,90.6
2019-05-21T23:40:56.441Z,91.2
2019-05-21T23:45:56.216Z,89.1
2019-05-21T23:50:55.688Z,90
2019-05-21T23:55:55.525Z,90.6
